LFAT/LTQ METAR and TAF weather

Enter ICAO airport designator
Station Type Date Time Source
LFAT METAR 2020/04/06 10:30 UTC NOAA

LFAT 061030Z AUTO 20008KT 170V230 9999 -RA OVC023/// ///TCU 12/08 Q1018


Station Type Date Time Source
LFAT Decoded METAR 2020/04/06 10:30 UTC NOAA

Le Touquet, France (LFAT) 50-31N 001-37E 14M
Apr 06, 2020 - 06:30 AM EDT / 2020.04.06 1030 UTC
Wind: from the SSW (200 degrees) at 9 MPH (8 KT) (direction variable):0
Visibility: greater than 7 mile(s):0
Sky conditions: overcast
Weather: light rain; Towering cumulus clouds observed
Temperature: 53 F (12 C)
Dew Point: 46 F (8 C)
Relative Humidity: 76%
Pressure (altimeter): 30.06 in. Hg (1018 hPa)
ob: LFAT 061030Z AUTO 20008KT 170V230 9999 -RA OVC023/// ///TCU 12/08 Q1018
cycle: 10

Station Type Date Time Source
LFAT TAF 2018/07/14 09:21 UTC NOAA

TAF TAF LFAT 140800Z 1409/1421 09004KT 8000 NSC
BECMG 1409/1411 30010KT

Example: see airport list